Time;durP1;ratioP1;P1;durP2;ratioP2;P2;SDS_P1;SDS_P2;PMS_P1;PMS_P2;Temp;Humidity;BMP_temperature;BMP_pressure;BME280_temperature;BME280_humidity;BME280_pressure;Samples;Min_cycle;Max_cycle;Signal;HPM_P1;HPM_P2
2023/01/09 00:01:35;;;;;;;10.95;9.57;;;7.80;99.90;;;;;;5017877;28;20033;-46
2023/01/09 00:04:21;;;;;;;12.77;10.82;;;7.80;99.90;;;;;;5022632;28;20018;-54
2023/01/09 00:07:07;;;;;;;10.95;9.85;;;7.80;99.90;;;;;;5022436;28;20077;-54
2023/01/09 00:09:53;;;;;;;13.02;11.70;;;7.80;99.90;;;;;;5025330;28;20052;-55
2023/01/09 00:12:39;;;;;;;13.52;11.88;;;7.80;99.90;;;;;;5024711;28;20034;-53
2023/01/09 00:15:25;;;;;;;13.63;12.20;;;7.70;99.90;;;;;;5021055;28;20069;-54
2023/01/09 00:18:11;;;;;;;13.07;11.65;;;7.70;99.90;;;;;;5019286;28;20114;-53
2023/01/09 00:21:02;;;;;;;13.52;12.02;;;7.70;99.90;;;;;;5007517;28;20117;-51
2023/01/09 00:23:48;;;;;;;15.05;11.98;;;7.70;99.90;;;;;;5021543;28;20057;-53
2023/01/09 00:26:34;;;;;;;16.02;12.88;;;7.60;99.90;;;;;;5029288;28;20040;-55
2023/01/09 00:29:20;;;;;;;15.00;13.40;;;7.60;99.90;;;;;;5024807;28;20026;-55
2023/01/09 00:32:09;;;;;;;13.98;12.48;;;7.70;99.90;;;;;;5023907;28;20053;-52
2023/01/09 00:34:55;;;;;;;13.88;12.35;;;7.70;99.90;;;;;;5027509;28;20096;-49
2023/01/09 00:37:41;;;;;;;14.20;12.40;;;7.60;99.90;;;;;;5021643;28;20041;-52
2023/01/09 00:40:27;;;;;;;13.07;11.77;;;7.70;99.90;;;;;;5025620;28;20025;-55
2023/01/09 00:43:13;;;;;;;15.73;13.43;;;7.70;99.90;;;;;;5026400;28;20651;-53
2023/01/09 00:46:02;;;;;;;14.02;12.55;;;7.70;99.90;;;;;;5027106;28;20030;-51
2023/01/09 00:48:49;;;;;;;13.02;11.70;;;7.60;99.90;;;;;;5024042;28;20034;-53
2023/01/09 00:51:35;;;;;;;13.48;12.07;;;7.60;99.90;;;;;;5017831;28;20148;-52
2023/01/09 00:54:22;;;;;;;15.40;12.43;;;7.60;99.90;;;;;;5025471;28;20028;-55
2023/01/09 00:57:11;;;;;;;15.70;13.07;;;7.60;99.90;;;;;;5022228;28;20030;-53
2023/01/09 00:59:58;;;;;;;15.13;13.38;;;7.60;99.90;;;;;;5023298;28;20048;-50
2023/01/09 01:02:44;;;;;;;13.68;12.07;;;7.60;99.90;;;;;;5018749;28;20414;-53
2023/01/09 01:08:35;;;;;;;14.52;12.00;;;7.60;99.90;;;;;;5020872;28;20025;-55
2023/01/09 01:11:21;;;;;;;14.85;12.48;;;7.60;99.90;;;;;;5022602;28;20504;-50
2023/01/09 01:14:07;;;;;;;14.00;12.40;;;7.70;99.90;;;;;;5025557;28;20112;-52
2023/01/09 01:16:53;;;;;;;13.15;11.50;;;7.70;99.90;;;;;;5023952;28;20030;-52
2023/01/09 01:19:39;;;;;;;13.77;11.98;;;7.70;99.90;;;;;;5022802;28;20025;-50
2023/01/09 01:22:25;;;;;;;14.93;13.20;;;7.70;99.90;;;;;;5029679;28;20032;-49
2023/01/09 01:25:13;;;;;;;16.55;12.50;;;7.70;99.90;;;;;;5023947;28;20037;-54
2023/01/09 01:27:59;;;;;;;18.58;13.13;;;7.70;99.90;;;;;;5023033;28;20112;-52
2023/01/09 01:30:45;;;;;;;13.75;11.68;;;7.70;99.90;;;;;;5025440;28;20029;-50
2023/01/09 01:33:32;;;;;;;13.75;12.23;;;7.70;99.90;;;;;;5015138;28;20365;-50
2023/01/09 01:36:18;;;;;;;14.70;12.32;;;7.70;99.90;;;;;;5025376;28;20032;-54
2023/01/09 01:39:05;;;;;;;15.18;13.05;;;7.80;99.90;;;;;;5024742;28;20077;-55
2023/01/09 01:41:51;;;;;;;14.13;12.57;;;7.80;99.90;;;;;;5024745;28;20041;-51
2023/01/09 01:45:04;;;;;;;14.02;12.43;;;7.80;99.90;;;;;;5025291;28;20438;-53
2023/01/09 01:48:04;;;;;;;14.73;12.98;;;7.80;99.90;;;;;;5027333;28;20025;-50
2023/01/09 01:51:02;;;;;;;13.60;12.07;;;7.80;99.90;;;;;;5026871;28;20386;-54
2023/01/09 01:53:53;;;;;;;13.88;12.20;;;7.90;99.90;;;;;;5023527;28;20028;-55
2023/01/09 01:56:45;;;;;;;13.60;11.13;;;7.90;99.90;;;;;;5020355;28;20030;-54
2023/01/09 01:59:41;;;;;;;13.35;11.95;;;7.90;99.90;;;;;;5020690;28;20993;-52
2023/01/09 02:02:30;;;;;;;13.48;11.65;;;8.00;99.90;;;;;;5019807;28;20026;-58
2023/01/09 02:05:17;;;;;;;14.13;11.70;;;8.00;99.90;;;;;;5024226;28;20481;-54
2023/01/09 02:08:05;;;;;;;13.38;11.40;;;8.00;99.90;;;;;;5007446;28;20163;-49
2023/01/09 02:10:52;;;;;;;13.23;11.82;;;8.00;99.90;;;;;;5019322;28;20172;-47
2023/01/09 02:13:39;;;;;;;14.25;11.23;;;8.00;99.90;;;;;;5024129;28;20819;-49
2023/01/09 02:16:53;;;;;;;14.75;12.20;;;8.10;99.90;;;;;;5018337;28;20121;-49
2023/01/09 02:20:15;;;;;;;13.23;11.32;;;8.00;99.90;;;;;;5020495;28;20498;-48
2023/01/09 02:23:17;;;;;;;14.48;12.02;;;8.10;99.90;;;;;;5019217;28;20457;-46
2023/01/09 02:26:39;;;;;;;15.07;11.93;;;8.10;99.90;;;;;;5012319;28;20018;-52
2023/01/09 02:30:00;;;;;;;13.80;11.57;;;8.10;99.90;;;;;;5022620;28;20577;-49
2023/01/09 02:32:52;;;;;;;13.40;11.50;;;8.10;99.90;;;;;;4980594;28;20478;-45
2023/01/09 02:36:15;;;;;;;13.70;11.15;;;8.10;99.90;;;;;;5018863;28;20073;-46
2023/01/09 02:39:25;;;;;;;14.75;11.32;;;8.10;99.90;;;;;;5025919;28;20057;-46
2023/01/09 02:42:19;;;;;;;13.90;10.70;;;8.10;99.90;;;;;;5026393;28;20021;-54
2023/01/09 02:45:05;;;;;;;10.95;9.80;;;8.00;99.90;;;;;;5023220;28;20037;-47
2023/01/09 02:47:51;;;;;;;11.95;10.68;;;8.10;99.90;;;;;;5020846;28;20038;-46
2023/01/09 02:51:18;;;;;;;11.00;9.80;;;8.00;99.90;;;;;;5021972;28;20044;-47
2023/01/09 02:54:10;;;;;;;12.60;10.00;;;8.10;99.90;;;;;;5029317;28;20014;-50
2023/01/09 02:57:12;;;;;;;11.35;10.05;;;8.00;99.90;;;;;;5024970;28;20060;-56
2023/01/09 03:00:03;;;;;;;11.38;10.13;;;8.00;99.90;;;;;;5028346;28;20022;-53
2023/01/09 03:03:02;;;;;;;13.15;10.52;;;8.00;99.90;;;;;;5013854;28;20026;-49
2023/01/09 03:06:12;;;;;;;15.30;10.93;;;8.00;99.90;;;;;;5013612;28;20030;-49
2023/01/09 03:09:03;;;;;;;18.77;13.55;;;8.00;99.90;;;;;;5016876;28;20033;-57
2023/01/09 03:11:56;;;;;;;11.57;10.07;;;7.90;99.90;;;;;;5000319;28;20033;-57
2023/01/09 03:14:48;;;;;;;14.55;11.60;;;7.90;99.90;;;;;;4999830;28;20109;-63
2023/01/09 03:17:38;;;;;;;12.15;10.80;;;7.90;99.90;;;;;;5021202;28;20060;-61
2023/01/09 03:20:28;;;;;;;13.25;10.85;;;7.90;99.90;;;;;;5020285;28;20064;-59
2023/01/09 03:23:14;;;;;;;12.93;10.52;;;8.00;99.90;;;;;;5023835;28;20017;-62
2023/01/09 03:26:00;;;;;;;11.52;10.10;;;7.80;99.90;;;;;;5027019;28;21686;-60
2023/01/09 03:28:46;;;;;;;10.80;9.43;;;7.80;99.90;;;;;;4983244;28;20073;-58
2023/01/09 03:31:32;;;;;;;11.45;9.60;;;7.70;99.90;;;;;;5023558;28;20036;-60
2023/01/09 03:34:18;;;;;;;15.52;9.77;;;7.70;99.90;;;;;;5010224;28;20029;-56
2023/01/09 03:37:04;;;;;;;15.90;11.52;;;7.80;99.90;;;;;;5024603;28;20397;-59
2023/01/09 03:39:50;;;;;;;11.52;8.93;;;7.80;99.90;;;;;;5028830;28;20032;-61
2023/01/09 03:42:36;;;;;;;12.82;9.98;;;7.90;99.90;;;;;;5022125;28;20038;-59
2023/01/09 03:45:22;;;;;;;14.27;10.18;;;7.80;99.90;;;;;;5005522;28;20087;-58
2023/01/09 03:48:08;;;;;;;12.43;9.93;;;7.70;99.90;;;;;;5008858;28;20084;-62
2023/01/09 03:50:55;;;;;;;11.30;9.80;;;7.80;99.90;;;;;;5012590;28;20475;-62
2023/01/09 03:53:41;;;;;;;14.25;9.90;;;7.80;99.90;;;;;;5015729;28;20109;-61
2023/01/09 03:56:27;;;;;;;13.48;10.30;;;7.80;99.90;;;;;;4995627;28;20031;-60
2023/01/09 03:59:13;;;;;;;16.80;12.95;;;7.90;99.90;;;;;;5013167;28;20025;-61
2023/01/09 04:01:59;;;;;;;15.77;11.32;;;7.80;99.90;;;;;;5027030;28;20036;-59
2023/01/09 04:04:44;;;;;;;13.88;10.00;;;7.70;99.90;;;;;;5001256;28;20033;-61
2023/01/09 04:07:30;;;;;;;43.78;25.67;;;7.80;99.90;;;;;;4992732;28;20085;-58
2023/01/09 04:10:16;;;;;;;12.38;10.20;;;7.80;99.90;;;;;;5021807;28;20104;-59
2023/01/09 04:13:02;;;;;;;11.45;10.25;;;7.80;99.90;;;;;;5012496;28;20032;-59
2023/01/09 04:15:48;;;;;;;13.27;9.10;;;7.90;99.90;;;;;;5019363;28;20029;-61
2023/01/09 04:18:34;;;;;;;15.02;10.25;;;7.90;99.90;;;;;;5016638;28;20030;-60
2023/01/09 04:21:20;;;;;;;18.95;10.02;;;7.90;99.90;;;;;;5021697;28;20089;-59
2023/01/09 04:24:06;;;;;;;11.10;9.75;;;8.00;99.90;;;;;;5012333;28;20037;-59
2023/01/09 04:26:52;;;;;;;11.90;10.13;;;7.90;99.90;;;;;;5026196;28;20030;-59
2023/01/09 04:29:38;;;;;;;12.80;10.82;;;7.90;99.90;;;;;;5016143;28;20037;-59
2023/01/09 04:32:26;;;;;;;14.38;11.50;;;7.90;99.90;;;;;;5026209;28;20033;-55
2023/01/09 04:35:12;;;;;;;12.88;10.10;;;7.90;99.90;;;;;;5002962;28;20481;-56
2023/01/09 04:37:59;;;;;;;11.48;9.13;;;8.00;99.90;;;;;;5031612;28;20033;-52
2023/01/09 04:40:48;;;;;;;13.02;10.40;;;7.90;99.90;;;;;;5016899;28;20069;-53
2023/01/09 04:43:34;;;;;;;14.40;10.13;;;7.90;99.90;;;;;;5011621;28;20092;-55
2023/01/09 04:46:20;;;;;;;11.43;9.60;;;7.90;99.90;;;;;;5029677;28;20498;-52
2023/01/09 04:49:06;;;;;;;12.20;9.32;;;7.90;99.90;;;;;;5012271;28;20053;-53
2023/01/09 04:51:52;;;;;;;12.32;10.00;;;7.90;99.90;;;;;;4997496;28;20033;-53
2023/01/09 04:54:38;;;;;;;12.30;10.70;;;7.90;99.90;;;;;;4992026;28;20034;-54
2023/01/09 04:57:25;;;;;;;11.90;10.10;;;7.90;99.90;;;;;;5000101;28;20076;-52
2023/01/09 05:00:11;;;;;;;12.27;10.30;;;7.80;99.90;;;;;;5027384;28;20035;-51
2023/01/09 05:02:57;;;;;;;12.77;10.45;;;7.70;99.90;;;;;;5018808;28;20033;-51
2023/01/09 05:05:43;;;;;;;16.00;11.63;;;7.70;99.90;;;;;;5016823;28;20493;-52
2023/01/09 05:08:29;;;;;;;12.48;10.55;;;7.70;99.90;;;;;;5030811;28;20037;-48
2023/01/09 05:11:15;;;;;;;14.90;11.30;;;7.70;99.90;;;;;;5021331;28;20041;-50
2023/01/09 05:14:01;;;;;;;12.52;9.75;;;7.70;99.90;;;;;;5011883;28;20018;-51
2023/01/09 05:16:47;;;;;;;12.85;10.65;;;7.70;99.90;;;;;;5024140;28;20026;-53
2023/01/09 05:19:33;;;;;;;14.27;10.90;;;7.80;99.90;;;;;;5030680;28;20038;-52
2023/01/09 05:22:19;;;;;;;15.60;11.15;;;7.80;99.90;;;;;;5013522;28;20117;-49
2023/01/09 05:25:05;;;;;;;12.73;10.18;;;7.80;99.90;;;;;;5012316;28;20494;-55
2023/01/09 05:27:52;;;;;;;12.55;10.15;;;7.80;99.90;;;;;;4991747;28;20117;-58
2023/01/09 05:30:38;;;;;;;14.70;9.65;;;7.80;99.90;;;;;;5013435;28;20141;-56
2023/01/09 05:33:24;;;;;;;12.25;10.13;;;7.90;99.90;;;;;;5012227;28;20109;-58
2023/01/09 05:36:10;;;;;;;14.07;9.88;;;8.00;99.90;;;;;;4977465;28;20030;-54
2023/01/09 05:38:57;;;;;;;13.73;10.23;;;8.00;99.90;;;;;;5014503;28;20124;-48
2023/01/09 05:41:42;;;;;;;12.40;10.07;;;7.90;99.90;;;;;;5027285;28;20642;-49
2023/01/09 05:44:28;;;;;;;11.77;9.75;;;7.90;99.90;;;;;;5009645;28;20022;-51
2023/01/09 05:47:14;;;;;;;11.43;8.75;;;7.90;99.90;;;;;;5011965;28;20060;-53
2023/01/09 05:50:00;;;;;;;11.40;8.93;;;7.90;99.90;;;;;;5030319;28;20047;-48
2023/01/09 05:52:46;;;;;;;13.32;9.50;;;7.90;99.90;;;;;;5029904;28;20501;-53
2023/01/09 05:55:33;;;;;;;10.95;8.95;;;7.90;99.90;;;;;;5010716;28;20657;-50
2023/01/09 05:58:19;;;;;;;10.32;8.70;;;7.90;99.90;;;;;;5014600;28;20033;-53
2023/01/09 06:01:05;;;;;;;11.18;8.52;;;7.90;99.90;;;;;;5009354;28;20030;-52
2023/01/09 06:03:51;;;;;;;11.43;8.82;;;7.90;99.90;;;;;;5009439;28;20113;-52
2023/01/09 06:06:38;;;;;;;11.38;9.07;;;7.90;99.90;;;;;;4997044;28;20038;-52
2023/01/09 06:09:24;;;;;;;11.68;8.52;;;8.00;99.90;;;;;;5016913;28;20506;-50
2023/01/09 06:12:10;;;;;;;12.20;10.35;;;8.00;99.90;;;;;;5011412;28;20033;-50
2023/01/09 06:14:56;;;;;;;12.38;10.55;;;8.00;99.90;;;;;;5032028;28;20030;-50
2023/01/09 06:17:42;;;;;;;14.35;10.27;;;8.00;99.90;;;;;;5022808;28;20026;-51
2023/01/09 06:20:28;;;;;;;12.02;10.18;;;8.00;99.90;;;;;;5015386;28;20041;-50
2023/01/09 06:23:14;;;;;;;15.45;11.35;;;8.00;99.90;;;;;;5010399;28;20109;-55
2023/01/09 06:26:00;;;;;;;17.75;13.13;;;8.10;99.90;;;;;;4996165;28;20030;-47
2023/01/09 06:28:46;;;;;;;16.52;12.48;;;8.10;99.90;;;;;;5012618;28;20030;-52
2023/01/09 06:31:32;;;;;;;14.35;10.88;;;8.10;99.90;;;;;;5015009;28;20025;-52
2023/01/09 06:34:18;;;;;;;12.15;8.82;;;8.10;99.90;;;;;;4995311;28;20117;-52
2023/01/09 06:37:04;;;;;;;11.18;8.90;;;8.10;99.90;;;;;;4986003;28;20142;-54
2023/01/09 06:39:50;;;;;;;10.05;8.88;;;8.20;99.90;;;;;;5033276;28;20068;-54
2023/01/09 06:42:36;;;;;;;12.55;9.32;;;8.20;99.90;;;;;;5027745;28;20116;-52
2023/01/09 06:45:22;;;;;;;10.32;8.50;;;8.20;99.90;;;;;;5015355;28;20437;-53
2023/01/09 06:48:08;;;;;;;10.70;7.47;;;8.20;99.90;;;;;;5024930;28;20040;-55
2023/01/09 06:50:54;;;;;;;6.78;5.93;;;8.30;99.90;;;;;;5033119;28;20029;-55
2023/01/09 06:53:40;;;;;;;7.80;6.90;;;8.20;99.90;;;;;;5020258;28;20564;-51
2023/01/09 06:56:26;;;;;;;9.65;7.75;;;8.20;99.90;;;;;;5015523;28;20449;-52
2023/01/09 06:59:12;;;;;;;8.05;6.85;;;8.20;99.90;;;;;;5028076;28;20033;-54
2023/01/09 07:01:58;;;;;;;8.93;6.50;;;8.20;99.90;;;;;;5034797;28;20025;-54
2023/01/09 07:04:44;;;;;;;9.00;7.22;;;8.20;99.90;;;;;;5031859;28;20489;-54
2023/01/09 07:07:30;;;;;;;8.43;6.53;;;8.20;99.90;;;;;;5005927;28;20072;-50
2023/01/09 07:10:16;;;;;;;7.80;6.63;;;8.20;99.90;;;;;;5033903;28;20059;-51
2023/01/09 07:13:02;;;;;;;7.93;6.78;;;8.20;99.90;;;;;;5033446;28;20017;-50
2023/01/09 07:15:48;;;;;;;8.35;6.50;;;8.20;99.90;;;;;;5040241;28;20021;-57
2023/01/09 07:18:35;;;;;;;7.45;6.22;;;8.10;99.90;;;;;;5023309;28;20418;-57
2023/01/09 07:21:22;;;;;;;7.50;6.30;;;8.00;99.90;;;;;;5002870;28;20108;-57
2023/01/09 07:24:07;;;;;;;8.70;6.18;;;8.00;99.90;;;;;;5009473;28;20044;-58
2023/01/09 07:26:53;;;;;;;6.45;5.45;;;7.90;99.90;;;;;;5027031;28;20022;-56
2023/01/09 07:29:39;;;;;;;6.10;5.10;;;7.90;99.90;;;;;;5033692;28;20029;-62
2023/01/09 07:32:26;;;;;;;6.78;5.22;;;7.90;99.90;;;;;;5018239;28;20029;-56
2023/01/09 07:35:12;;;;;;;9.85;4.80;;;8.00;99.90;;;;;;5032372;28;20049;-58
2023/01/09 07:37:57;;;;;;;5.75;4.88;;;8.00;99.90;;;;;;4999173;28;20081;-56
2023/01/09 07:40:43;;;;;;;10.02;5.40;;;7.90;99.90;;;;;;5012471;28;20030;-56
2023/01/09 07:43:29;;;;;;;5.03;4.53;;;8.10;99.90;;;;;;5013719;28;20029;-59
2023/01/09 07:46:15;;;;;;;6.95;4.45;;;8.00;99.90;;;;;;5013656;28;20049;-57
2023/01/09 07:49:01;;;;;;;5.00;4.05;;;8.00;99.90;;;;;;4985520;28;20486;-56
2023/01/09 07:51:47;;;;;;;6.40;3.80;;;8.10;99.90;;;;;;5013122;28;20501;-56
2023/01/09 07:54:33;;;;;;;4.28;3.40;;;8.10;99.90;;;;;;5013867;28;20105;-59
2023/01/09 07:57:19;;;;;;;6.93;4.88;;;8.00;99.90;;;;;;4998845;28;20104;-55
2023/01/09 08:00:09;;;;;;;5.05;3.80;;;8.00;99.90;;;;;;5014051;28;20131;-59
2023/01/09 08:02:55;;;;;;;3.80;3.30;;;8.00;99.90;;;;;;5013446;28;20056;-58
2023/01/09 08:05:41;;;;;;;5.10;3.85;;;8.10;99.90;;;;;;5013541;28;20113;-59
2023/01/09 08:08:27;;;;;;;4.50;3.50;;;8.00;99.90;;;;;;5014174;28;20402;-58
2023/01/09 08:11:13;;;;;;;3.88;3.30;;;8.00;99.90;;;;;;5013964;28;20030;-58
2023/01/09 08:13:59;;;;;;;4.80;3.75;;;8.00;99.90;;;;;;5015204;28;20069;-54
2023/01/09 08:16:45;;;;;;;4.00;3.30;;;7.90;99.90;;;;;;5017574;28;20169;-54
2023/01/09 08:19:31;;;;;;;3.92;3.38;;;8.00;99.90;;;;;;5013679;28;20026;-57
2023/01/09 08:22:17;;;;;;;4.65;3.30;;;8.00;99.90;;;;;;5013492;28;20046;-53
2023/01/09 08:25:03;;;;;;;4.30;3.42;;;7.90;99.90;;;;;;5012320;28;20403;-58
2023/01/09 08:27:49;;;;;;;3.92;3.13;;;8.00;99.90;;;;;;4999694;28;20037;-53
2023/01/09 08:30:36;;;;;;;3.83;3.10;;;7.90;99.90;;;;;;5013959;28;20108;-52
2023/01/09 08:33:22;;;;;;;4.00;3.50;;;7.90;99.90;;;;;;5013799;28;20482;-53
2023/01/09 08:36:08;;;;;;;4.80;3.20;;;7.80;99.90;;;;;;5011875;28;20026;-57
2023/01/09 08:38:54;;;;;;;3.80;3.00;;;7.80;99.90;;;;;;5012747;28;20049;-55
2023/01/09 08:47:49;;;;;;;3.15;2.85;;;8.20;99.90;;;;;;5013586;28;20152;-53
2023/01/09 08:50:35;;;;;;;6.10;3.47;;;8.20;99.90;;;;;;5012871;28;20060;-52
2023/01/09 08:53:21;;;;;;;3.70;3.17;;;8.20;99.90;;;;;;5020132;28;20026;-53
2023/01/09 08:56:07;;;;;;;4.70;3.60;;;8.20;99.90;;;;;;5015678;28;20505;-47
2023/01/09 08:58:53;;;;;;;4.57;3.85;;;8.20;99.90;;;;;;4992596;28;20541;-49
2023/01/09 09:01:39;;;;;;;4.60;3.72;;;8.30;99.90;;;;;;5010268;28;20033;-49
2023/01/09 09:04:25;;;;;;;4.68;4.10;;;8.30;99.90;;;;;;5011204;28;20078;-47
2023/01/09 09:07:11;;;;;;;4.15;3.45;;;8.40;99.90;;;;;;5008966;28;20053;-54
2023/01/09 09:09:57;;;;;;;3.80;3.30;;;8.40;99.90;;;;;;4983380;28;20038;-55
2023/01/09 09:12:43;;;;;;;4.35;3.60;;;8.40;99.90;;;;;;4997052;28;20022;-52
2023/01/09 09:15:29;;;;;;;4.32;3.90;;;8.50;99.90;;;;;;5010641;28;20473;-55
2023/01/09 09:18:15;;;;;;;3.50;3.20;;;8.40;99.90;;;;;;5010080;28;20025;-55
2023/01/09 09:21:01;;;;;;;3.83;2.75;;;8.50;99.90;;;;;;5022649;28;20025;-56
2023/01/09 09:23:47;;;;;;;3.80;2.80;;;8.60;99.90;;;;;;5032585;28;20038;-56
2023/01/09 09:26:33;;;;;;;3.58;2.95;;;8.80;99.90;;;;;;5014398;28;20026;-50
2023/01/09 09:29:19;;;;;;;2.90;2.60;;;8.80;99.90;;;;;;5020715;28;20061;-55
2023/01/09 09:32:05;;;;;;;2.58;2.38;;;9.00;99.90;;;;;;5000873;28;20393;-56
2023/01/09 09:34:51;;;;;;;3.08;2.40;;;9.10;99.90;;;;;;5016047;28;20030;-56
2023/01/09 09:37:37;;;;;;;2.20;2.00;;;9.10;99.90;;;;;;5004657;28;20629;-55
2023/01/09 09:40:57;;;;;;;3.33;2.15;;;9.20;99.90;;;;;;5021979;28;20041;-53
2023/01/09 09:48:12;;;;;;;3.22;2.20;;;9.20;99.90;;;;;;5022962;28;20022;-56
2023/01/09 09:51:10;;;;;;;1.98;1.77;;;9.10;99.90;;;;;;4996049;28;20038;-54
2023/01/09 09:54:17;;;;;;;2.92;2.00;;;8.90;99.90;;;;;;5026432;28;20359;-56
2023/01/09 09:57:05;;;;;;;2.20;1.77;;;8.80;99.90;;;;;;5029658;28;20065;-53
2023/01/09 09:59:52;;;;;;;2.85;1.73;;;8.80;99.90;;;;;;5035777;28;20037;-55
2023/01/09 10:02:50;;;;;;;5.63;1.92;;;8.80;99.90;;;;;;5010928;28;20033;-53
2023/01/09 10:05:41;;;;;;;4.85;2.00;;;8.90;99.90;;;;;;5015624;28;20026;-52
2023/01/09 10:08:48;;;;;;;1.70;1.60;;;8.70;99.90;;;;;;5015225;28;20112;-54
2023/01/09 10:11:41;;;;;;;2.80;1.60;;;8.80;99.90;;;;;;5036669;28;20080;-55
2023/01/09 10:14:27;;;;;;;2.58;1.70;;;8.80;99.90;;;;;;5026835;28;20068;-53
2023/01/09 10:17:50;;;;;;;4.00;1.90;;;8.90;99.90;;;;;;5011215;28;20076;-50
2023/01/09 10:20:48;;;;;;;1.77;1.50;;;9.00;99.90;;;;;;5029199;28;20030;-49
2023/01/09 10:23:46;;;;;;;4.88;1.80;;;9.10;99.90;;;;;;5031074;28;20517;-49
2023/01/09 10:26:39;;;;;;;2.67;1.75;;;9.10;99.90;;;;;;5025949;28;20525;-57
2023/01/09 10:29:41;;;;;;;2.85;1.77;;;8.80;99.90;;;;;;5028322;28;20061;-57
2023/01/09 10:33:04;;;;;;;2.95;1.70;;;8.60;99.90;;;;;;5034784;28;20030;-53
2023/01/09 10:35:56;;;;;;;6.28;2.05;;;8.70;99.90;;;;;;5010172;28;20044;-56
2023/01/09 10:38:46;;;;;;;3.65;2.30;;;8.70;99.90;;;;;;5018089;28;20068;-54
2023/01/09 10:42:10;;;;;;;4.10;2.30;;;8.80;99.90;;;;;;5014480;28;20045;-55
2023/01/09 10:45:04;;;;;;;4.55;1.70;;;8.90;99.90;;;;;;5013644;28;20501;-56
2023/01/09 10:47:52;;;;;;;4.15;2.10;;;8.90;99.90;;;;;;4998841;28;20034;-56
2023/01/09 10:50:42;;;;;;;3.22;2.22;;;8.90;99.90;;;;;;5002988;28;20025;-57
2023/01/09 10:53:34;;;;;;;3.80;1.70;;;8.80;99.90;;;;;;5011484;28;20050;-55
2023/01/09 10:56:35;;;;;;;2.42;2.00;;;8.60;99.90;;;;;;4992483;28;20054;-55
2023/01/09 10:59:23;;;;;;;2.28;1.70;;;8.60;99.90;;;;;;5003632;28;20022;-57
2023/01/09 11:02:35;;;;;;;3.67;1.98;;;8.60;99.90;;;;;;4991861;28;20040;-51
2023/01/09 11:05:25;;;;;;;3.83;1.67;;;8.70;99.90;;;;;;5007712;28;20033;-48
2023/01/09 11:08:30;;;;;;;3.53;1.88;;;8.70;99.90;;;;;;4986327;28;20058;-51
2023/01/09 11:11:32;;;;;;;2.85;1.45;;;8.60;99.90;;;;;;5022000;28;20057;-51
2023/01/09 11:14:31;;;;;;;4.15;2.17;;;8.70;99.90;;;;;;5009515;28;20533;-56
2023/01/09 11:17:20;;;;;;;1.67;1.52;;;8.90;99.90;;;;;;5022389;28;20025;-57
2023/01/09 11:20:16;;;;;;;3.63;1.90;;;9.00;99.90;;;;;;5015195;28;20069;-54
2023/01/09 11:23:02;;;;;;;3.75;2.22;;;8.80;99.90;;;;;;5015890;28;20034;-55
2023/01/09 11:25:56;;;;;;;4.18;1.35;;;8.90;99.90;;;;;;5017333;28;20038;-55
2023/01/09 11:28:42;;;;;;;2.38;1.70;;;9.00;99.90;;;;;;5018673;28;20018;-52
2023/01/09 11:31:29;;;;;;;4.00;1.90;;;8.90;99.90;;;;;;5024534;28;20030;-53
2023/01/09 11:34:21;;;;;;;3.33;1.70;;;9.00;99.90;;;;;;5022557;28;20026;-54
2023/01/09 11:37:16;;;;;;;3.30;1.75;;;9.10;99.90;;;;;;5020729;28;20497;-56
2023/01/09 11:40:02;;;;;;;2.25;1.70;;;9.00;99.90;;;;;;5017802;28;20030;-53
2023/01/09 11:43:14;;;;;;;2.97;1.90;;;9.10;99.90;;;;;;5014442;28;20111;-57
2023/01/09 11:46:06;;;;;;;3.78;1.90;;;9.10;99.90;;;;;;5010544;28;20026;-57
2023/01/09 11:48:55;;;;;;;3.67;1.70;;;9.00;99.90;;;;;;5012727;28;20132;-56
2023/01/09 11:51:42;;;;;;;3.85;1.90;;;9.10;99.90;;;;;;5010942;28;20394;-49
2023/01/09 11:54:31;;;;;;;3.35;1.70;;;9.00;99.90;;;;;;5012739;28;20022;-53
2023/01/09 11:57:18;;;;;;;2.33;1.95;;;9.10;99.90;;;;;;5013149;28;20462;-54
2023/01/09 12:00:24;;;;;;;2.85;1.67;;;9.30;99.90;;;;;;5013983;28;20454;-52
2023/01/09 12:03:45;;;;;;;3.20;2.17;;;9.40;99.90;;;;;;5012933;28;20026;-52
2023/01/09 12:06:52;;;;;;;2.10;1.60;;;9.40;99.90;;;;;;5009465;28;20029;-49
2023/01/09 12:10:10;;;;;;;1.88;1.63;;;9.50;99.90;;;;;;5013801;28;20029;-55
2023/01/09 12:13:17;;;;;;;1.77;1.50;;;9.60;99.90;;;;;;5010872;28;20029;-55
2023/01/09 12:16:06;;;;;;;2.78;1.50;;;9.50;99.90;;;;;;5013540;28;20097;-53
2023/01/09 12:19:09;;;;;;;2.33;1.60;;;9.50;99.90;;;;;;5012153;28;20085;-56
2023/01/09 12:22:06;;;;;;;2.90;2.00;;;9.50;99.90;;;;;;5011795;28;20096;-57
2023/01/09 12:25:07;;;;;;;4.63;1.75;;;9.50;99.90;;;;;;5017895;28;20153;-56
2023/01/09 12:28:18;;;;;;;6.50;1.88;;;9.50;99.90;;;;;;5026509;28;20052;-53
2023/01/09 12:31:19;;;;;;;2.88;1.65;;;9.40;99.90;;;;;;5026791;28;20565;-53
2023/01/09 12:34:08;;;;;;;2.00;1.45;;;9.30;99.90;;;;;;5022972;28;20018;-55
2023/01/09 12:37:29;;;;;;;2.63;1.80;;;9.50;99.90;;;;;;5026096;28;20053;-53
2023/01/09 12:40:15;;;;;;;6.53;2.47;;;9.30;99.90;;;;;;5011751;28;20026;-52
2023/01/09 12:43:23;;;;;;;5.53;2.47;;;9.30;99.90;;;;;;5015152;28;20040;-56
2023/01/09 12:46:17;;;;;;;3.70;1.65;;;9.40;99.90;;;;;;5011049;28;20022;-56
2023/01/09 12:49:40;;;;;;;2.60;1.48;;;9.30;99.90;;;;;;5004990;28;20030;-52
2023/01/09 12:52:45;;;;;;;2.35;1.52;;;9.20;99.90;;;;;;4973744;28;20111;-50
2023/01/09 12:55:40;;;;;;;3.05;1.52;;;9.20;99.90;;;;;;5014525;28;20014;-52
2023/01/09 12:58:43;;;;;;;1.77;1.55;;;9.20;99.90;;;;;;4996264;28;20414;-52
2023/01/09 13:01:37;;;;;;;2.65;1.52;;;9.20;99.90;;;;;;5006358;28;20038;-54
2023/01/09 13:04:40;;;;;;;1.65;1.50;;;9.10;99.90;;;;;;5023279;28;20032;-53
2023/01/09 13:07:33;;;;;;;2.47;1.60;;;9.10;99.90;;;;;;5023674;28;20029;-50
2023/01/09 13:10:32;;;;;;;2.47;1.88;;;9.10;99.90;;;;;;5033384;28;20107;-50
2023/01/09 13:13:24;;;;;;;3.15;1.70;;;9.10;99.90;;;;;;5033230;28;20075;-52
2023/01/09 13:16:21;;;;;;;1.58;1.40;;;9.10;99.90;;;;;;4992337;28;20065;-54
2023/01/09 13:19:23;;;;;;;2.92;1.90;;;9.10;99.90;;;;;;4993134;28;20529;-50
2023/01/09 13:22:11;;;;;;;1.77;1.40;;;9.10;99.90;;;;;;4993271;28;20053;-51
2023/01/09 13:25:14;;;;;;;1.92;1.60;;;9.20;99.90;;;;;;5005544;28;20034;-55
2023/01/09 13:28:13;;;;;;;4.10;1.75;;;9.20;99.90;;;;;;5019157;28;20037;-52
2023/01/09 13:31:15;;;;;;;3.40;1.75;;;9.20;99.90;;;;;;5007956;28;20030;-52
2023/01/09 13:34:03;;;;;;;2.45;1.45;;;9.30;99.90;;;;;;4993816;28;20626;-58
2023/01/09 13:36:53;;;;;;;2.53;1.77;;;9.40;99.90;;;;;;5019269;28;20087;-57
2023/01/09 13:39:39;;;;;;;1.73;1.40;;;9.40;99.90;;;;;;5019653;28;20049;-54
2023/01/09 13:42:34;;;;;;;1.65;1.52;;;9.70;99.90;;;;;;5019288;28;20113;-56
2023/01/09 13:45:29;;;;;;;1.75;1.63;;;9.70;99.90;;;;;;5011307;28;20026;-57
2023/01/09 13:48:26;;;;;;;2.88;2.10;;;9.80;99.90;;;;;;5006765;28;20069;-57
2023/01/09 13:51:40;;;;;;;3.63;2.28;;;9.70;99.90;;;;;;5006766;28;20508;-59
2023/01/09 13:54:54;;;;;;;1.80;1.50;;;9.60;99.90;;;;;;4998627;28;20026;-51
2023/01/09 13:58:06;;;;;;;1.48;1.38;;;9.70;99.90;;;;;;5023189;28;20021;-51
2023/01/09 14:00:59;;;;;;;2.60;1.70;;;9.70;99.90;;;;;;5019780;28;20083;-53
2023/01/09 14:04:10;;;;;;;2.60;1.73;;;9.50;99.90;;;;;;5014835;28;20061;-51
2023/01/09 14:07:18;;;;;;;3.90;1.65;;;9.40;99.90;;;;;;5019082;28;20048;-52
2023/01/09 14:10:20;;;;;;;2.88;1.70;;;9.20;99.90;;;;;;5027735;28;20036;-53
2023/01/09 14:13:13;;;;;;;2.30;1.90;;;9.10;99.90;;;;;;5033212;28;20057;-50
2023/01/09 14:16:16;;;;;;;4.40;2.15;;;8.90;99.90;;;;;;5020832;28;20085;-48
2023/01/09 14:19:31;;;;;;;1.65;1.52;;;8.90;99.90;;;;;;5019404;28;20037;-51
2023/01/09 14:22:31;;;;;;;3.15;2.10;;;8.90;99.90;;;;;;5022057;28;20038;-54
2023/01/09 14:25:23;;;;;;;2.17;1.80;;;8.80;99.90;;;;;;5022068;28;20025;-51
2023/01/09 14:28:25;;;;;;;2.47;1.95;;;8.90;99.90;;;;;;5020332;28;20018;-53
2023/01/09 14:31:27;;;;;;;2.88;1.90;;;9.00;99.90;;;;;;5007044;28;20529;-51
2023/01/09 14:34:37;;;;;;;3.60;2.35;;;9.00;99.90;;;;;;5022126;28;20033;-56
2023/01/09 14:37:26;;;;;;;2.92;2.03;;;9.00;99.90;;;;;;5022961;28;20022;-54
2023/01/09 14:40:22;;;;;;;2.80;2.00;;;8.90;99.90;;;;;;5025897;28;20026;-54
2023/01/09 14:43:13;;;;;;;;;;;9.00;99.90;;;;;;5010792;28;20560;-51
2023/01/09 14:46:05;;;;;;;4.00;1.88;;;8.90;99.90;;;;;;5025473;28;19906;-55
2023/01/09 14:49:29;;;;;;;2.53;2.00;;;9.00;99.90;;;;;;5021689;28;20107;-49
2023/01/09 14:52:29;;;;;;;3.83;1.90;;;9.00;99.90;;;;;;5020046;28;20431;-52
2023/01/09 14:55:35;;;;;;;3.92;2.08;;;8.90;99.90;;;;;;5022822;28;20032;-59
2023/01/09 14:58:26;;;;;;;2.70;2.00;;;8.70;99.90;;;;;;5021945;28;20024;-54
2023/01/09 15:01:24;;;;;;;4.05;1.92;;;8.70;99.90;;;;;;5020562;28;20049;-53
2023/01/09 15:04:25;;;;;;;5.00;2.03;;;8.60;99.90;;;;;;5009761;28;20105;-49
2023/01/09 15:07:22;;;;;;;2.05;1.85;;;8.50;99.90;;;;;;5024909;28;20017;-49
2023/01/09 15:10:21;;;;;;;6.07;2.47;;;8.40;99.90;;;;;;5025209;28;20029;-51